Time;durP1;ratioP1;P1;durP2;ratioP2;P2;SDS_P1;SDS_P2;PMS_P1;PMS_P2;Temp;Humidity;BMP_temperature;BMP_pressure;BME280_temperature;BME280_humidity;BME280_pressure;Samples;Min_cycle;Max_cycle;Signal;HPM_P1;HPM_P2
2021/07/07 00:00:09;;;;;;;2.17;1.48;;;;;;;16.86;nan;100391.22;5036922;28;20112;-81
2021/07/07 00:02:35;;;;;;;2.42;1.30;;;;;;;16.82;nan;100378.47;5036610;28;20299;-81
2021/07/07 00:05:00;;;;;;;2.75;1.40;;;;;;;16.81;nan;100374.16;5037808;28;20151;-81
2021/07/07 00:07:25;;;;;;;2.38;1.25;;;;;;;16.80;nan;100383.16;5052964;28;20037;-82
2021/07/07 00:09:51;;;;;;;1.90;1.20;;;;;;;16.77;nan;100387.03;5041103;28;20048;-81
2021/07/07 00:12:16;;;;;;;3.17;1.48;;;;;;;16.79;nan;100386.88;5036985;28;20025;-81
2021/07/07 00:14:42;;;;;;;3.20;1.38;;;;;;;16.77;nan;100381.69;5036442;28;20044;-81
2021/07/07 00:17:07;;;;;;;2.05;1.30;;;;;;;16.74;nan;100385.56;5037492;28;20026;-81
2021/07/07 00:19:32;;;;;;;2.15;1.60;;;;;;;16.71;nan;100394.00;5053178;28;20037;-81
2021/07/07 00:21:59;;;;;;;3.47;1.55;;;;;;;16.72;nan;100397.47;5052179;28;20045;-81
2021/07/07 00:24:25;;;;;;;3.17;1.67;;;;;;;16.72;nan;100389.47;5036104;28;20066;-81
2021/07/07 00:26:50;;;;;;;2.90;1.77;;;;;;;16.70;nan;100373.63;5037533;28;20041;-81
2021/07/07 00:29:17;;;;;;;3.00;1.73;;;;;;;16.64;nan;100373.59;5051643;28;20045;-81
2021/07/07 00:31:43;;;;;;;1.98;1.52;;;;;;;16.60;nan;100378.50;5035335;28;20033;-81
2021/07/07 00:34:08;;;;;;;2.20;1.60;;;;;;;16.62;nan;100380.97;5036331;28;20041;-81
2021/07/07 00:36:33;;;;;;;2.30;1.40;;;;;;;16.63;nan;100372.75;5035877;28;20125;-82
2021/07/07 00:38:59;;;;;;;2.33;1.20;;;;;;;16.64;nan;100370.94;5036538;28;20087;-81
2021/07/07 00:41:24;;;;;;;1.50;1.10;;;;;;;16.63;nan;100369.28;5041020;28;20228;-81
2021/07/07 00:43:49;;;;;;;2.20;1.30;;;;;;;16.60;nan;100378.50;5043966;28;20490;-81
2021/07/07 00:46:15;;;;;;;1.70;1.30;;;;;;;16.59;nan;100376.00;5035085;28;20030;-81
2021/07/07 00:48:40;;;;;;;1.60;1.10;;;;;;;16.57;nan;100378.91;5036105;28;20060;-81
2021/07/07 00:51:05;;;;;;;1.90;1.20;;;;;;;16.57;nan;100378.91;5036695;28;20036;-81
2021/07/07 00:53:31;;;;;;;2.38;1.65;;;;;;;16.52;nan;100382.16;5052146;28;20034;-81
2021/07/07 00:55:58;;;;;;;2.47;1.55;;;;;;;16.47;nan;100387.25;5036493;28;20065;-82
2021/07/07 00:58:27;;;;;;;1.60;1.20;;;;;;;16.51;nan;100379.66;5036175;28;20052;-81
2021/07/07 01:00:52;;;;;;;2.58;1.40;;;;;;;16.52;nan;100381.31;5037037;28;20128;-81
2021/07/07 01:03:18;;;;;;;2.65;1.80;;;;;;;16.46;nan;100393.59;5036698;28;20064;-81
2021/07/07 01:05:43;;;;;;;2.00;1.35;;;;;;;16.49;nan;100390.56;5051362;28;20040;-81
2021/07/07 01:08:09;;;;;;;4.88;1.83;;;;;;;16.42;nan;100379.00;5035607;28;20502;-82
2021/07/07 01:10:34;;;;;;;3.35;1.95;;;;;;;16.42;nan;100365.66;5043743;28;20035;-82
2021/07/07 01:13:00;;;;;;;3.97;1.60;;;;;;;16.42;nan;100372.81;5045343;28;20041;-81
2021/07/07 01:15:25;;;;;;;3.90;1.98;;;;;;;16.33;nan;100372.97;5071052;28;20040;-81
2021/07/07 01:17:51;;;;;;;2.17;1.45;;;;;;;16.37;nan;100368.06;5036071;28;20052;-81
2021/07/07 01:20:20;;;;;;;3.38;1.40;;;;;;;16.35;nan;100354.06;5034829;28;20087;-81
2021/07/07 01:22:46;;;;;;;4.13;1.50;;;;;;;16.33;nan;100362.28;5035572;28;20539;-81
2021/07/07 01:25:13;;;;;;;2.00;1.40;;;;;;;16.33;nan;100364.97;5035389;28;20037;-81
2021/07/07 01:27:40;;;;;;;2.92;1.73;;;;;;;16.32;nan;100373.16;5035603;28;20115;-81
2021/07/07 01:30:08;;;;;;;3.35;1.38;;;;;;;16.30;nan;100370.69;5034469;28;20071;-81
2021/07/07 01:32:33;;;;;;;3.22;1.40;;;;;;;16.31;nan;100385.66;5035901;28;20599;-81
2021/07/07 01:34:59;;;;;;;1.88;1.30;;;;;;;16.35;nan;100378.09;5036434;28;20042;-81
2021/07/07 01:37:26;;;;;;;2.72;1.30;;;;;;;16.35;nan;100378.94;5036025;28;20208;-81
2021/07/07 01:39:52;;;;;;;2.88;1.25;;;;;;;16.35;nan;100381.59;5050218;28;20045;-81
2021/07/07 01:42:17;;;;;;;3.28;1.50;;;;;;;16.37;nan;100372.56;5035516;28;20026;-80
2021/07/07 01:44:43;;;;;;;2.35;1.70;;;;;;;16.28;nan;100386.06;5034849;28;20041;-81
2021/07/07 01:47:08;;;;;;;2.72;1.25;;;;;;;16.26;nan;100381.94;5035369;28;20398;-81
2021/07/07 01:49:34;;;;;;;2.08;1.20;;;;;;;16.25;nan;100374.94;5035607;28;20041;-80
2021/07/07 01:51:59;;;;;;;2.95;1.50;;;;;;;16.26;nan;100382.75;5049854;28;20045;-80
2021/07/07 01:54:24;;;;;;;1.98;1.52;;;;;;;16.24;nan;100405.31;5033166;28;20129;-81
2021/07/07 01:56:50;;;;;;;4.22;1.42;;;;;;;16.24;nan;100402.66;5034571;28;20158;-80
2021/07/07 01:59:15;;;;;;;4.22;1.70;;;;;;;16.13;nan;100394.13;5034374;28;20103;-81
2021/07/07 02:01:40;;;;;;;2.90;1.52;;;;;;;16.10;nan;100405.19;5034055;28;20049;-80
2021/07/07 02:04:06;;;;;;;2.20;1.35;;;;;;;16.10;nan;100409.69;5033933;28;20048;-80
2021/07/07 02:06:31;;;;;;;1.52;1.05;;;;;;;16.09;nan;100411.53;5035214;28;20137;-80
2021/07/07 02:08:58;;;;;;;2.47;1.27;;;;;;;16.07;nan;100407.41;5034580;28;20033;-81
2021/07/07 02:11:23;;;;;;;1.63;1.13;;;;;;;16.09;nan;100406.22;5034576;28;20041;-80
2021/07/07 02:13:49;;;;;;;2.15;1.30;;;;;;;16.02;nan;100405.31;5033690;28;20029;-80
2021/07/07 02:16:14;;;;;;;3.17;1.30;;;;;;;15.98;nan;100406.72;5049462;28;20053;-80
2021/07/07 02:18:40;;;;;;;3.78;1.50;;;;;;;15.96;nan;100405.25;5034154;28;20204;-80
2021/07/07 02:21:07;;;;;;;2.78;1.35;;;;;;;15.92;nan;100408.31;5032294;28;20042;-80
2021/07/07 02:23:32;;;;;;;3.72;1.30;;;;;;;15.91;nan;100403.97;5045762;28;20107;-80
2021/07/07 02:25:58;;;;;;;2.80;1.50;;;;;;;15.88;nan;100399.03;5034312;28;20040;-80
2021/07/07 02:28:26;;;;;;;3.00;1.30;;;;;;;15.91;nan;100392.50;5034400;28;20504;-80
2021/07/07 02:30:54;;;;;;;2.10;1.30;;;;;;;15.85;nan;100402.09;5034600;28;20033;-80
2021/07/07 02:33:20;;;;;;;2.67;1.30;;;;;;;15.85;nan;100418.06;5034325;28;20034;-81
2021/07/07 02:35:46;;;;;;;3.10;1.30;;;;;;;15.87;nan;100421.38;5049923;28;20041;-80
2021/07/07 02:38:15;;;;;;;2.38;1.40;;;;;;;15.90;nan;100404.19;5048751;28;20037;-80
2021/07/07 02:40:41;;;;;;;3.10;1.33;;;;;;;15.87;nan;100393.88;5049602;28;20549;-80
2021/07/07 02:43:08;;;;;;;3.50;1.40;;;;;;;15.84;nan;100396.94;5049539;28;20124;-80
2021/07/07 02:45:35;;;;;;;2.00;1.20;;;;;;;15.83;nan;100401.44;5034191;28;20033;-80
2021/07/07 02:48:00;;;;;;;3.95;1.30;;;;;;;15.79;nan;100408.16;5033716;28;20045;-81
2021/07/07 02:50:26;;;;;;;2.13;1.20;;;;;;;15.80;nan;100422.31;5032677;28;20494;-80
2021/07/07 02:52:53;;;;;;;2.15;1.27;;;;;;;15.75;nan;100433.53;5034344;28;20068;-81
2021/07/07 02:55:20;;;;;;;2.90;1.20;;;;;;;15.78;nan;100432.34;5033963;28;20044;-80
2021/07/07 02:57:56;;;;;;;2.47;1.50;;;;;;;15.77;nan;100428.84;5032604;28;20041;-81
2021/07/07 03:00:22;;;;;;;1.50;1.10;;;;;;;15.77;nan;100426.19;5033101;28;20052;-81
2021/07/07 03:02:47;;;;;;;1.88;1.13;;;;;;;15.76;nan;100443.19;5034257;28;20088;-81
2021/07/07 03:05:13;;;;;;;3.83;1.50;;;;;;;15.76;nan;100426.38;5033776;28;20037;-80
2021/07/07 03:07:39;;;;;;;2.53;1.30;;;;;;;15.75;nan;100428.19;5033528;28;20617;-80
2021/07/07 03:10:11;;;;;;;2.53;1.25;;;;;;;15.75;nan;100433.53;5052745;28;20030;-80
2021/07/07 03:12:36;;;;;;;3.13;1.30;;;;;;;15.73;nan;100429.41;5028709;28;20034;-81
2021/07/07 03:15:03;;;;;;;1.95;1.27;;;;;;;15.69;nan;100408.44;5066852;28;20448;-81
2021/07/07 03:17:28;;;;;;;3.33;1.17;;;;;;;15.70;nan;100423.44;5037514;28;20037;-80
2021/07/07 03:19:54;;;;;;;3.45;1.63;;;;;;;15.72;nan;100428.59;5037763;28;20120;-81
2021/07/07 03:22:19;;;;;;;1.52;1.15;;;;;;;15.66;nan;100426.63;5036870;28;20387;-80
2021/07/07 03:24:45;;;;;;;1.73;1.23;;;;;;;15.69;nan;100434.28;5056705;28;20053;-81
2021/07/07 03:27:11;;;;;;;2.20;1.40;;;;;;;15.62;nan;100436.84;5055147;28;20029;-81
2021/07/07 03:29:36;;;;;;;1.70;1.20;;;;;;;15.62;nan;100431.53;5063680;28;20037;-81
2021/07/07 03:32:02;;;;;;;2.63;1.10;;;;;;;15.62;nan;100433.38;5052193;28;20068;-80
2021/07/07 03:34:27;;;;;;;4.18;1.20;;;;;;;15.62;nan;100423.53;5066344;28;20506;-81
2021/07/07 03:36:53;;;;;;;2.88;1.50;;;;;;;15.67;nan;100414.97;5038217;28;20048;-81
2021/07/07 03:39:18;;;;;;;2.03;1.30;;;;;;;15.58;nan;100411.56;5038125;28;20108;-81
2021/07/07 03:41:43;;;;;;;1.95;1.25;;;;;;;15.54;nan;100412.13;5052376;28;20453;-80
2021/07/07 03:44:08;;;;;;;2.20;1.30;;;;;;;15.50;nan;100422.34;5042459;28;20068;-81
2021/07/07 03:46:34;;;;;;;2.13;1.15;;;;;;;15.45;nan;100428.25;5042417;28;20057;-80
2021/07/07 03:48:59;;;;;;;1.73;1.25;;;;;;;15.43;nan;100424.94;5059577;28;20040;-81
2021/07/07 03:51:24;;;;;;;2.22;1.40;;;;;;;15.44;nan;100431.09;5052484;28;20040;-81
2021/07/07 03:53:50;;;;;;;2.33;1.13;;;;;;;15.46;nan;100434.41;5037493;28;20088;-81
2021/07/07 03:56:15;;;;;;;2.00;1.13;;;;;;;15.50;nan;100427.69;5036814;28;20045;-81
2021/07/07 03:58:40;;;;;;;1.73;1.10;;;;;;;15.50;nan;100431.16;5037274;28;20033;-80
2021/07/07 04:01:06;;;;;;;4.18;1.33;;;;;;;15.48;nan;100424.38;5037534;28;20088;-80
2021/07/07 04:03:31;;;;;;;2.05;1.05;;;;;;;15.48;nan;100417.19;5036085;28;20038;-81
2021/07/07 04:05:57;;;;;;;2.35;1.20;;;;;;;15.51;nan;100432.81;5035704;28;20049;-80
2021/07/07 04:08:22;;;;;;;2.13;1.30;;;;;;;15.45;nan;100449.56;5036366;28;20501;-80
2021/07/07 04:10:48;;;;;;;2.60;1.30;;;;;;;15.41;nan;100458.94;5037163;28;20064;-80
2021/07/07 04:13:13;;;;;;;1.75;1.05;;;;;;;15.45;nan;100473.53;5059550;28;20028;-80
2021/07/07 04:15:38;;;;;;;2.50;1.27;;;;;;;15.38;nan;100469.97;5041317;28;20414;-81
2021/07/07 04:18:05;;;;;;;1.83;1.10;;;;;;;15.51;nan;100459.47;5037363;28;20072;-80
2021/07/07 04:20:30;;;;;;;2.15;1.10;;;;;;;15.49;nan;100458.00;5035898;28;20045;-81
2021/07/07 04:22:56;;;;;;;2.55;1.20;;;;;;;15.50;nan;100460.50;5052271;28;20498;-81
2021/07/07 04:25:21;;;;;;;2.30;1.00;;;;;;;15.57;nan;100467.75;5040291;28;20033;-81
2021/07/07 04:27:47;;;;;;;2.58;1.30;;;;;;;15.57;nan;100462.41;5036672;28;20037;-80
2021/07/07 04:30:16;;;;;;;2.40;1.00;;;;;;;15.61;nan;100469.00;5036124;28;20088;-81
2021/07/07 04:32:42;;;;;;;1.92;1.25;;;;;;;15.63;nan;100457.16;5040226;28;20074;-81
2021/07/07 04:35:09;;;;;;;2.13;1.15;;;;;;;15.63;nan;100457.16;5050328;28;20500;-81
2021/07/07 04:37:35;;;;;;;1.70;1.02;;;;;;;15.66;nan;100455.94;5052439;28;20037;-81
2021/07/07 04:40:01;;;;;;;2.53;0.98;;;;;;;15.69;nan;100445.75;5051788;28;20029;-81
2021/07/07 04:42:26;;;;;;;1.73;1.00;;;;;;;15.72;nan;100460.56;5036440;28;20032;-80
2021/07/07 04:44:51;;;;;;;2.33;1.20;;;;;;;15.74;nan;100481.72;5051734;28;20545;-81
2021/07/07 04:47:17;;;;;;;2.65;1.30;;;;;;;15.73;nan;100485.38;5040794;28;20041;-80
2021/07/07 04:49:42;;;;;;;2.70;1.35;;;;;;;15.77;nan;100481.34;5035691;28;20062;-80
2021/07/07 04:52:07;;;;;;;1.65;0.90;;;;;;;15.76;nan;100483.19;5035332;28;20091;-81
2021/07/07 04:54:33;;;;;;;2.17;0.98;;;;;;;15.76;nan;100487.69;5053924;28;20037;-81
2021/07/07 04:56:59;;;;;;;3.70;1.17;;;;;;;15.69;nan;100483.06;5036913;28;20106;-81
2021/07/07 04:59:24;;;;;;;1.83;1.08;;;;;;;15.76;nan;100491.19;5035931;28;20037;-81
2021/07/07 05:01:49;;;;;;;2.38;1.00;;;;;;;15.76;nan;100491.19;5050825;28;20049;-80
2021/07/07 05:04:15;;;;;;;2.38;1.15;;;;;;;15.77;nan;100489.34;5035035;28;20064;-81
2021/07/07 05:06:40;;;;;;;2.13;1.10;;;;;;;15.76;nan;100503.69;5036013;28;20506;-81
2021/07/07 05:09:05;;;;;;;1.60;1.15;;;;;;;15.77;nan;100508.81;5036731;28;20375;-81
2021/07/07 05:11:32;;;;;;;2.58;1.30;;;;;;;15.85;nan;100510.56;5050916;28;20044;-80
2021/07/07 05:13:57;;;;;;;1.60;1.00;;;;;;;15.91;nan;100502.63;5054611;28;20033;-80
2021/07/07 05:16:23;;;;;;;1.50;0.98;;;;;;;15.97;nan;100514.41;5037516;28;20120;-81
2021/07/07 05:18:48;;;;;;;1.33;1.10;;;;;;;16.06;nan;100507.94;5049210;28;20033;-81
2021/07/07 05:21:13;;;;;;;2.45;1.15;;;;;;;15.96;nan;100514.59;5034898;28;20057;-81
2021/07/07 05:23:39;;;;;;;2.72;0.98;;;;;;;15.94;nan;100509.44;5033319;28;20052;-81
2021/07/07 05:26:05;;;;;;;2.05;1.35;;;;;;;15.92;nan;100504.31;5036268;28;20052;-81
2021/07/07 05:28:30;;;;;;;4.80;1.10;;;;;;;15.97;nan;100502.91;5035033;28;20033;-81
2021/07/07 05:31:03;;;;;;;2.95;1.10;;;;;;;15.97;nan;100489.56;5033717;28;20053;-81
2021/07/07 05:33:33;;;;;;;1.55;1.00;;;;;;;15.93;nan;100505.94;5049975;28;20107;-81
2021/07/07 05:35:59;;;;;;;2.27;0.93;;;;;;;15.92;nan;100519.47;5051145;28;20052;-81
2021/07/07 05:38:24;;;;;;;2.10;1.20;;;;;;;15.95;nan;100528.97;5034981;28;20041;-83
2021/07/07 05:40:49;;;;;;;4.45;1.45;;;;;;;15.90;nan;100521.50;5051796;28;20037;-82
2021/07/07 05:43:15;;;;;;;2.30;1.33;;;;;;;15.78;nan;100504.31;5035666;28;20102;-82
2021/07/07 05:45:40;;;;;;;2.33;1.35;;;;;;;15.73;nan;100515.56;5035564;28;20580;-83
2021/07/07 05:48:06;;;;;;;2.38;1.25;;;;;;;15.73;nan;100526.22;5047329;28;20036;-83
2021/07/07 05:50:31;;;;;;;1.63;1.10;;;;;;;15.85;nan;100519.41;5036234;28;20498;-82
2021/07/07 05:52:57;;;;;;;2.22;1.20;;;;;;;15.90;nan;100524.19;5050997;28;20148;-83
2021/07/07 05:55:22;;;;;;;2.03;1.10;;;;;;;15.94;nan;100522.78;5050520;28;20379;-83
2021/07/07 05:57:48;;;;;;;1.98;1.13;;;;;;;16.02;nan;100522.69;5051030;28;20053;-83
2021/07/07 06:00:17;;;;;;;1.42;1.00;;;;;;;16.07;nan;100533.59;5032721;28;20079;-83
2021/07/07 06:02:44;;;;;;;2.63;1.17;;;;;;;16.11;nan;100531.38;5025121;28;20041;-82
2021/07/07 06:05:10;;;;;;;2.55;1.20;;;;;;;16.18;nan;100534.94;5034543;28;20091;-84
2021/07/07 06:07:37;;;;;;;2.03;1.17;;;;;;;16.28;nan;100534.63;5035017;28;20079;-84
2021/07/07 06:10:04;;;;;;;3.42;1.15;;;;;;;16.29;nan;100534.47;5050558;28;20528;-82
2021/07/07 06:12:29;;;;;;;2.30;1.23;;;;;;;16.37;nan;100541.50;5033327;28;20041;-83
2021/07/07 06:14:54;;;;;;;2.65;1.02;;;;;;;16.46;nan;100540.38;5034900;28;20037;-82
2021/07/07 06:17:19;;;;;;;2.85;1.30;;;;;;;16.38;nan;100550.38;5035073;28;20498;-82
2021/07/07 06:19:45;;;;;;;1.77;1.08;;;;;;;16.43;nan;100550.63;5034183;28;20049;-83
2021/07/07 06:22:11;;;;;;;2.00;1.10;;;;;;;16.52;nan;100550.31;5035553;28;20457;-82
2021/07/07 06:24:36;;;;;;;2.95;0.98;;;;;;;16.47;nan;100552.72;5038537;28;20128;-83
2021/07/07 06:27:02;;;;;;;4.63;1.10;;;;;;;16.56;nan;100551.59;5052010;28;20086;-82
2021/07/07 06:29:27;;;;;;;2.90;1.10;;;;;;;16.80;nan;100554.06;5036556;28;20180;-82
2021/07/07 06:31:52;;;;;;;1.98;0.90;;;;;;;16.81;nan;100561.91;5036002;28;20062;-83
2021/07/07 06:34:17;;;;;;;2.30;1.30;;;;;;;16.95;nan;100569.03;5041403;28;20374;-82
2021/07/07 06:36:43;;;;;;;2.83;1.00;;;;;;;17.02;nan;100573.56;5033241;28;20025;-83
2021/07/07 06:39:08;;;;;;;1.98;1.00;;;;;;;17.16;nan;100570.84;5029143;28;20026;-84
2021/07/07 06:41:34;;;;;;;4.22;1.20;;;;;;;17.31;nan;100577.94;5030979;28;20464;-83
2021/07/07 06:44:00;;;;;;;1.73;0.95;;;;;;;17.48;nan;100573.94;5033112;28;20033;-83
2021/07/07 06:46:25;;;;;;;2.53;1.00;;;;;;;17.61;nan;100571.34;5036840;28;20045;-84
2021/07/07 06:48:51;;;;;;;2.58;1.00;;;;;;;17.67;nan;100568.91;5045569;28;20040;-82
2021/07/07 06:51:17;;;;;;;2.08;1.10;;;;;;;17.71;nan;100576.34;5033134;28;20259;-82
2021/07/07 06:53:42;;;;;;;2.83;0.93;;;;;;;17.82;nan;100573.13;5035590;28;20108;-82
2021/07/07 06:56:08;;;;;;;2.15;1.00;;;;;;;18.06;nan;100572.81;5026661;28;20116;-81
2021/07/07 06:58:34;;;;;;;1.35;0.80;;;;;;;18.37;nan;100573.13;5025251;28;20127;-81
2021/07/07 07:00:59;;;;;;;2.10;1.00;;;;;;;18.62;nan;100570.72;5029677;28;20053;-83
2021/07/07 07:03:24;;;;;;;3.47;1.08;;;;;;;18.63;nan;100577.72;5026142;28;20029;-81
2021/07/07 07:05:50;;;;;;;4.57;1.10;;;;;;;18.56;nan;100584.09;5032465;28;20433;-82
2021/07/07 07:08:17;;;;;;;6.28;1.33;;;;;;;18.55;nan;100582.44;5034171;28;20030;-81
2021/07/07 07:10:42;;;;;;;4.38;1.55;;;;;;;18.52;nan;100582.84;5034957;28;20083;-79
2021/07/07 07:13:08;;;;;;;1.85;0.85;;;;;;;18.81;nan;100585.19;5041130;28;20029;-79
2021/07/07 07:15:33;;;;;;;1.67;0.77;;;;;;;19.42;nan;100588.69;5043799;28;20374;-79
2021/07/07 07:17:59;;;;;;;3.00;1.10;;;;;;;19.44;nan;100589.31;5034999;28;20025;-79
2021/07/07 07:20:29;;;;;;;2.92;1.05;;;;;;;19.63;nan;100587.63;5033525;28;20411;-80
2021/07/07 07:22:54;;;;;;;2.85;0.90;;;;;;;19.81;nan;100592.38;5033655;28;20093;-80
2021/07/07 07:25:20;;;;;;;2.42;1.00;;;;;;;19.78;nan;100588.22;5035633;28;20060;-79
2021/07/07 07:27:45;;;;;;;3.05;0.90;;;;;;;19.64;nan;100576.69;5032483;28;20037;-79
2021/07/07 07:30:12;;;;;;;2.22;0.85;;;;;;;19.99;nan;100587.13;5033674;28;20037;-79
2021/07/07 07:32:37;;;;;;;4.72;1.23;;;;;;;20.55;nan;100586.47;5034918;28;20490;-80
2021/07/07 07:35:03;;;;;;;1.10;0.80;;;;;;;20.77;nan;100597.69;5048918;28;20125;-79
2021/07/07 07:37:41;;;;;;;3.85;1.00;;;;;;;21.05;nan;100588.41;5026088;28;20030;-80
2021/07/07 07:40:10;;;;;;;1.85;0.80;;;;;;;21.56;nan;100598.09;5020295;28;20060;-79
2021/07/07 07:42:43;;;;;;;2.17;0.85;;;;;;;21.34;nan;100594.16;5029424;28;20054;-79
2021/07/07 07:45:12;;;;;;;3.53;1.40;;;;;;;20.79;nan;100598.31;5033393;28;20044;-79
2021/07/07 07:47:40;;;;;;;3.25;0.90;;;;;;;21.03;nan;100589.66;5049179;28;20025;-79
2021/07/07 07:50:06;;;;;;;2.38;0.93;;;;;;;21.57;nan;100593.53;5028338;28;20029;-79
2021/07/07 07:52:32;;;;;;;3.33;1.10;;;;;;;22.13;nan;100603.25;5027421;28;20037;-80
2021/07/07 07:54:57;;;;;;;2.03;0.70;;;;;;;22.64;nan;100602.00;5032961;28;20033;-79
2021/07/07 07:57:22;;;;;;;2.45;0.90;;;;;;;22.80;nan;100597.00;5033709;28;20059;-80
2021/07/07 07:59:47;;;;;;;1.85;1.00;;;;;;;23.15;nan;100598.97;5034077;28;20071;-82
2021/07/07 08:02:13;;;;;;;3.45;1.00;;;;;;;22.97;nan;100597.13;5036481;28;20042;-79
2021/07/07 08:04:38;;;;;;;2.05;0.90;;;;;;;22.96;nan;100599.00;5023231;28;20045;-78
2021/07/07 08:07:03;;;;;;;2.92;0.75;;;;;;;23.51;nan;100603.31;5029405;28;20045;-79
2021/07/07 08:09:29;;;;;;;1.98;0.90;;;;;;;23.85;nan;100609.75;5032467;28;20120;-80
2021/07/07 08:11:55;;;;;;;3.50;1.05;;;;;;;23.96;nan;100599.97;5032061;28;20036;-78
2021/07/07 08:14:20;;;;;;;2.90;1.08;;;;;;;24.04;nan;100599.59;5035364;28;20313;-82
2021/07/07 08:16:49;;;;;;;2.03;0.82;;;;;;;24.55;nan;100616.00;5034360;28;20103;-79
2021/07/07 08:19:14;;;;;;;1.77;0.90;;;;;;;25.00;nan;100605.19;5032395;28;20030;-80
2021/07/07 08:21:39;;;;;;;2.15;0.88;;;;;;;24.82;nan;100601.91;5025098;28;20545;-79
2021/07/07 08:24:05;;;;;;;3.47;1.00;;;;;;;24.96;nan;100611.34;5034894;28;20486;-79
2021/07/07 08:26:30;;;;;;;2.70;0.73;;;;;;;25.22;nan;100620.72;5034361;28;20049;-78
2021/07/07 08:28:58;;;;;;;3.20;0.93;;;;;;;25.12;nan;100617.78;5024890;28;20045;-79
2021/07/07 08:31:25;;;;;;;2.28;0.90;;;;;;;24.53;nan;100612.75;5031914;28;20068;-78
2021/07/07 08:33:53;;;;;;;3.80;1.20;;;;;;;25.14;nan;100612.97;5032787;28;20483;-79
2021/07/07 08:36:22;;;;;;;1.50;0.80;;;;;;;25.29;nan;100617.81;5024324;28;20032;-80
2021/07/07 08:38:48;;;;;;;2.00;0.85;;;;;;;25.89;nan;100622.50;5034733;28;20041;-80
2021/07/07 08:41:13;;;;;;;2.03;0.65;;;;;;;26.27;nan;100620.81;5034045;28;20095;-79
2021/07/07 08:43:38;;;;;;;2.10;0.90;;;;;;;26.41;nan;100622.03;5034990;28;20057;-80
2021/07/07 08:46:04;;;;;;;2.17;0.60;;;;;;;26.53;nan;100623.75;5040959;28;20030;-80
2021/07/07 08:48:29;;;;;;;1.98;0.73;;;;;;;26.66;nan;100620.69;5029141;28;20068;-81
2021/07/07 08:50:59;;;;;;;3.63;0.80;;;;;;;27.28;nan;100627.47;5033879;28;20025;-80
2021/07/07 08:53:25;;;;;;;1.42;0.80;;;;;;;27.79;nan;100632.41;5034495;28;20030;-80
2021/07/07 08:55:52;;;;;;;3.03;0.82;;;;;;;28.35;nan;100635.38;5033061;28;20029;-80
2021/07/07 08:58:17;;;;;;;2.47;1.00;;;;;;;28.63;nan;100636.00;5032468;28;20805;-80
2021/07/07 09:00:43;;;;;;;2.53;0.90;;;;;;;28.28;nan;100634.81;5025329;28;20056;-80
2021/07/07 09:03:14;;;;;;;1.88;0.90;;;;;;;28.73;nan;100642.28;5031814;28;20269;-80
2021/07/07 09:06:00;;;;;;;1.73;0.65;;;;;;;29.11;nan;100658.44;5031342;28;20072;-80
2021/07/07 09:08:35;;;;;;;1.55;0.77;;;;;;;27.99;nan;100646.13;5029871;28;20048;-79
2021/07/07 09:11:20;;;;;;;1.85;0.70;;;;;;;27.77;nan;100650.88;5025006;28;20030;-80
2021/07/07 09:14:06;;;;;;;1.73;0.77;;;;;;;27.21;nan;100659.47;5033512;28;20125;-79
2021/07/07 09:16:50;;;;;;;2.67;1.00;;;;;;;27.17;nan;100653.69;5024194;28;20041;-79
2021/07/07 09:19:20;;;;;;;2.40;0.90;;;;;;;26.81;nan;100655.28;5032934;28;20039;-80
2021/07/07 09:22:01;;;;;;;1.38;0.63;;;;;;;26.38;nan;100665.91;5023533;28;20562;-78
2021/07/07 09:24:27;;;;;;;;;;;;;;;26.42;nan;100669.75;5034143;28;20043;-79
2021/07/07 09:26:59;;;;;;;0.93;0.70;;;;;;;25.84;nan;100660.34;5032417;28;19917;-79
2021/07/07 09:29:36;;;;;;;2.00;0.70;;;;;;;26.36;nan;100659.09;5022375;28;20284;-80
2021/07/07 09:32:22;;;;;;;2.00;0.82;;;;;;;26.44;nan;100667.63;5029778;28;20138;-80
2021/07/07 09:34:51;;;;;;;1.73;0.70;;;;;;;26.10;nan;100653.41;5037086;28;20041;-77
2021/07/07 09:37:28;;;;;;;2.70;0.80;;;;;;;26.17;nan;100664.88;5029329;28;20037;-77
2021/07/07 09:39:55;;;;;;;2.35;0.77;;;;;;;26.46;nan;100654.63;5024581;28;20082;-78
2021/07/07 09:42:28;;;;;;;2.90;0.90;;;;;;;25.97;nan;100660.00;5026708;28;20080;-78
2021/07/07 09:44:54;;;;;;;2.10;0.77;;;;;;;25.76;nan;100660.75;5029948;28;20033;-79
2021/07/07 09:47:20;;;;;;;2.75;0.80;;;;;;;25.89;nan;100665.84;5036093;28;20044;-78
2021/07/07 09:49:48;;;;;;;5.75;0.63;;;;;;;26.22;nan;100664.94;5029200;28;20447;-78
2021/07/07 09:52:15;;;;;;;2.47;0.80;;;;;;;26.26;nan;100668.75;5026232;28;20071;-76
2021/07/07 09:54:41;;;;;;;2.15;0.75;;;;;;;25.91;nan;100668.28;5028405;28;20112;-77
2021/07/07 09:57:06;;;;;;;2.00;0.70;;;;;;;25.37;nan;100663.44;5028958;28;20037;-79
2021/07/07 09:59:32;;;;;;;3.30;0.60;;;;;;;25.46;nan;100659.25;5022024;28;20432;-79
2021/07/07 10:01:59;;;;;;;2.00;0.73;;;;;;;25.75;nan;100665.34;5027201;28;20255;-78
2021/07/07 10:04:32;;;;;;;1.75;0.70;;;;;;;25.52;nan;100663.66;5022905;28;20054;-78
2021/07/07 10:06:59;;;;;;;2.15;0.90;;;;;;;24.79;nan;100670.81;5026506;28;20060;-79
2021/07/07 10:09:25;;;;;;;2.95;1.10;;;;;;;24.91;nan;100670.75;5026985;28;20068;-77
2021/07/07 10:11:53;;;;;;;1.88;0.77;;;;;;;25.22;nan;100672.13;5028375;28;20457;-77
2021/07/07 10:14:20;;;;;;;3.45;0.93;;;;;;;25.43;nan;100671.41;5024972;28;20033;-78
2021/07/07 10:16:45;;;;;;;1.95;0.80;;;;;;;25.03;nan;100663.41;5024170;28;20510;-76
2021/07/07 10:19:11;;;;;;;3.15;0.98;;;;;;;25.34;nan;100661.22;5022733;28;20048;-76
2021/07/07 10:21:37;;;;;;;3.58;0.95;;;;;;;25.53;nan;100662.59;5029544;28;20037;-77
2021/07/07 10:24:03;;;;;;;2.25;0.82;;;;;;;25.55;nan;100659.63;5021764;28;20501;-77
2021/07/07 10:26:29;;;;;;;2.72;0.95;;;;;;;25.20;nan;100655.31;5029406;28;20033;-77
2021/07/07 10:28:55;;;;;;;2.08;0.80;;;;;;;24.84;nan;100657.38;5028463;28;20057;-77
2021/07/07 10:31:21;;;;;;;1.48;0.77;;;;;;;25.13;nan;100651.94;5027104;28;20026;-77
2021/07/07 10:33:47;;;;;;;3.00;0.90;;;;;;;25.50;nan;100652.25;5028745;28;20036;-77
2021/07/07 10:36:28;;;;;;;3.20;0.73;;;;;;;25.21;nan;100654.25;5018718;28;20038;-77
2021/07/07 10:38:59;;;;;;;;;;;;;;;25.45;nan;100651.38;5021199;28;20603;-76
2021/07/07 10:41:51;;;;;;;2.15;0.80;;;;;;;25.27;nan;100647.84;5026604;28;19955;-76
2021/07/07 10:44:22;;;;;;;3.45;1.10;;;;;;;25.21;nan;100648.81;5033091;28;20034;-76
2021/07/07 10:47:02;;;;;;;3.25;1.02;;;;;;;24.98;nan;100645.19;5029261;28;20218;-77
2021/07/07 10:49:47;;;;;;;1.65;0.80;;;;;;;24.98;nan;100641.66;5026661;28;20022;-76
2021/07/07 10:52:18;;;;;;;2.17;1.10;;;;;;;24.79;nan;100641.88;5024432;28;20085;-77
2021/07/07 10:54:58;;;;;;;3.13;1.08;;;;;;;24.90;nan;100639.34;5033637;28;20405;-76
2021/07/07 10:57:25;;;;;;;3.17;1.25;;;;;;;24.91;nan;100639.13;5026970;28;20056;-77
2021/07/07 10:59:55;;;;;;;3.20;1.00;;;;;;;24.97;nan;100645.41;5022164;28;20038;-76
2021/07/07 11:02:26;;;;;;;3.35;1.10;;;;;;;24.84;nan;100643.84;5015288;28;20137;-76
2021/07/07 11:04:53;;;;;;;2.80;0.90;;;;;;;25.11;nan;100645.94;5020502;28;20515;-77
2021/07/07 11:07:28;;;;;;;3.58;1.15;;;;;;;25.22;nan;100650.47;5023135;28;20459;-77
2021/07/07 11:09:56;;;;;;;2.92;1.20;;;;;;;25.20;nan;100647.19;5032679;28;20044;-77
2021/07/07 11:12:48;;;;;;;3.63;1.20;;;;;;;25.27;nan;100642.44;5031341;28;20410;-77
2021/07/07 11:15:14;;;;;;;3.67;1.10;;;;;;;25.38;nan;100648.81;5026493;28;20060;-77
2021/07/07 11:17:46;;;;;;;4.63;1.00;;;;;;;25.19;nan;100642.84;5017648;28;20124;-78
2021/07/07 11:20:15;;;;;;;3.67;1.20;;;;;;;25.19;nan;100637.41;5027816;28;20064;-77
2021/07/07 11:22:42;;;;;;;3.63;1.23;;;;;;;25.29;nan;100632.19;5034728;28;20037;-76
2021/07/07 11:25:11;;;;;;;5.57;1.35;;;;;;;25.15;nan;100638.97;5037287;28;20061;-78
2021/07/07 11:27:37;;;;;;;2.95;1.25;;;;;;;25.21;nan;100632.59;5027097;28;20428;-77
2021/07/07 11:30:08;;;;;;;3.38;1.02;;;;;;;25.26;nan;100637.25;5027915;28;20088;-76
2021/07/07 11:32:36;;;;;;;2.95;1.10;;;;;;;25.20;nan;100625.56;5027654;28;20120;-78
2021/07/07 11:35:10;;;;;;;2.42;1.00;;;;;;;25.41;nan;100623.97;5027797;28;20041;-76
2021/07/07 11:37:36;;;;;;;3.85;1.25;;;;;;;25.67;nan;100629.75;5030641;28;20618;-76
2021/07/07 11:40:17;;;;;;;4.55;1.10;;;;;;;25.59;nan;100629.09;5031340;28;20068;-77